Time;durP1;ratioP1;P1;durP2;ratioP2;P2;SDS_P1;SDS_P2;PMS_P1;PMS_P2;Temp;Humidity;BMP_temperature;BMP_pressure;BME280_temperature;BME280_humidity;BME280_pressure;Samples;Min_cycle;Max_cycle;Signal;HPM_P1;HPM_P2
2021/08/20 00:01:56;;;;;;;2.80;2.50;;;;;;;18.31;84.52;156068.06;5072436;28;20880;-73
2021/08/20 00:04:31;;;;;;;3.10;2.30;;;;;;;18.34;84.84;156074.56;5075401;28;20544;-73
2021/08/20 00:07:06;;;;;;;2.27;1.87;;;;;;;18.35;85.20;156078.44;5073139;28;20525;-73
2021/08/20 00:09:42;;;;;;;3.47;2.43;;;;;;;18.37;85.15;156082.38;5073457;28;20452;-72
2021/08/20 00:12:17;;;;;;;2.70;2.07;;;;;;;18.35;85.17;156077.19;5072457;28;20461;-73
2021/08/20 00:14:56;;;;;;;2.80;2.17;;;;;;;18.34;86.02;156075.88;5074393;28;20673;-73
2021/08/20 00:17:31;;;;;;;2.10;1.90;;;;;;;18.33;85.12;156073.25;5071101;28;20851;-73
2021/08/20 00:20:08;;;;;;;3.40;2.60;;;;;;;18.33;84.30;156071.94;5074818;28;20877;-73
2021/08/20 00:22:43;;;;;;;3.10;2.00;;;;;;;18.31;84.15;156066.75;5073613;28;20529;-73
2021/08/20 00:25:19;;;;;;;2.73;2.30;;;;;;;18.27;86.69;156056.34;5072206;28;20445;-73
2021/08/20 00:27:54;;;;;;;3.20;2.43;;;;;;;18.23;84.56;156048.53;5072963;28;20454;-73
2021/08/20 00:30:31;;;;;;;3.23;2.40;;;;;;;18.22;85.20;156044.59;5071134;28;20662;-73
2021/08/20 00:33:06;;;;;;;3.20;2.57;;;;;;;18.23;85.53;156048.53;5073623;28;20461;-73
2021/08/20 00:35:42;;;;;;;3.90;2.60;;;;;;;18.22;86.06;156045.91;5073803;28;20489;-73
2021/08/20 00:38:17;;;;;;;3.33;2.50;;;;;;;18.20;85.40;156040.69;5054707;28;20803;-73
2021/08/20 00:40:55;;;;;;;2.27;2.00;;;;;;;18.18;85.41;156035.50;5056736;28;20824;-73
2021/08/20 00:43:31;;;;;;;2.90;2.47;;;;;;;18.20;84.98;156040.69;5073776;28;20854;-73
2021/08/20 00:46:08;;;;;;;2.87;2.27;;;;;;;18.19;85.14;156036.75;5057260;28;20454;-73
2021/08/20 00:48:43;;;;;;;3.77;2.60;;;;;;;18.21;86.18;156043.28;5057919;28;20834;-73
2021/08/20 00:51:21;;;;;;;3.50;2.50;;;;;;;18.19;85.83;156036.75;5055049;28;21015;-73
2021/08/20 00:53:57;;;;;;;2.60;2.10;;;;;;;18.15;85.91;156027.69;5072868;28;20457;-73
2021/08/20 00:56:34;;;;;;;3.43;2.43;;;;;;;18.16;87.41;156030.25;5056929;28;20489;-73
2021/08/20 00:59:11;;;;;;;3.00;2.70;;;;;;;18.13;86.70;156022.50;5073211;28;20438;-73
2021/08/20 01:01:49;;;;;;;2.60;2.30;;;;;;;18.14;88.04;156025.06;5071832;28;20908;-73
2021/08/20 01:04:24;;;;;;;3.50;2.50;;;;;;;18.13;89.65;156022.50;5073356;28;20458;-73
2021/08/20 01:07:02;;;;;;;3.10;2.70;;;;;;;18.06;87.15;156004.22;5052771;28;20434;-73
2021/08/20 01:09:37;;;;;;;2.50;2.10;;;;;;;18.03;88.00;155996.41;5053382;28;20442;-73
2021/08/20 01:12:12;;;;;;;3.50;2.90;;;;;;;18.01;88.24;155989.88;5069037;28;20438;-73
2021/08/20 01:14:52;;;;;;;2.50;2.27;;;;;;;18.00;86.85;155987.31;5073079;28;20422;-73
2021/08/20 01:17:29;;;;;;;3.23;2.30;;;;;;;17.96;87.62;155978.19;5073089;28;20533;-73
2021/08/20 01:20:08;;;;;;;2.53;2.30;;;;;;;17.98;89.19;155982.06;5056642;28;20544;-73
2021/08/20 01:22:44;;;;;;;2.53;2.27;;;;;;;17.97;89.54;155980.81;5051158;28;20937;-73
2021/08/20 01:25:25;;;;;;;2.20;2.00;;;;;;;17.99;90.47;155986.00;5063336;28;20438;-73
2021/08/20 01:28:05;;;;;;;3.80;2.63;;;;;;;17.99;89.31;155986.00;5070184;28;20463;-73
2021/08/20 01:30:42;;;;;;;3.50;2.43;;;;;;;18.00;88.64;155988.59;5050608;28;20442;-73
2021/08/20 01:33:18;;;;;;;2.90;2.50;;;;;;;18.01;88.69;155989.88;5056083;28;20450;-73
2021/08/20 01:35:55;;;;;;;4.30;2.80;;;;;;;17.97;89.85;155979.50;5056068;28;20466;-73
2021/08/20 01:38:34;;;;;;;3.00;2.30;;;;;;;17.94;89.37;155973.00;5056490;28;20882;-73
2021/08/20 01:41:11;;;;;;;3.20;2.57;;;;;;;17.96;90.56;155978.19;5055694;28;20450;-73
2021/08/20 01:43:47;;;;;;;3.27;2.40;;;;;;;17.99;92.25;155984.69;5072417;28;20446;-73
2021/08/20 01:46:23;;;;;;;3.70;2.63;;;;;;;17.95;90.09;155975.56;5071017;28;20437;-73
2021/08/20 01:49:01;;;;;;;4.87;3.10;;;;;;;17.96;89.37;155976.88;5084598;28;20552;-73
2021/08/20 01:51:37;;;;;;;3.90;2.90;;;;;;;17.96;90.57;155976.88;5054852;28;20489;-73
2021/08/20 01:54:13;;;;;;;4.43;2.30;;;;;;;17.96;91.11;155976.88;5073841;28;20442;-73
2021/08/20 01:56:50;;;;;;;4.63;2.93;;;;;;;17.94;90.70;155973.00;5056529;28;20497;-73
2021/08/20 01:59:25;;;;;;;4.00;2.90;;;;;;;17.93;90.36;155970.38;5054672;28;20457;-73
2021/08/20 02:02:01;;;;;;;3.10;2.77;;;;;;;17.92;90.81;155966.50;5054799;28;20449;-73
2021/08/20 02:04:36;;;;;;;3.73;3.00;;;;;;;17.92;90.08;155967.78;5055918;28;20490;-73
2021/08/20 02:07:12;;;;;;;3.93;3.10;;;;;;;17.92;89.44;155967.78;5070727;28;20442;-73
2021/08/20 02:09:50;;;;;;;3.00;2.70;;;;;;;17.93;89.64;155970.38;5056068;28;20442;-73
2021/08/20 02:12:28;;;;;;;2.53;2.30;;;;;;;17.95;90.78;155975.56;5071722;28;20479;-73
2021/08/20 02:15:14;;;;;;;3.87;2.73;;;;;;;17.92;91.62;155967.78;5055402;28;20795;-73
2021/08/20 02:17:50;;;;;;;3.00;2.57;;;;;;;17.91;91.21;155965.16;5054687;28;20988;-73
2021/08/20 02:20:27;;;;;;;2.73;2.53;;;;;;;17.86;90.50;155952.16;5055195;28;20454;-73
2021/08/20 02:23:03;;;;;;;3.33;2.73;;;;;;;17.85;89.09;155949.53;5071519;28;20537;-73
2021/08/20 02:25:39;;;;;;;2.80;2.53;;;;;;;17.85;88.88;155948.22;5071102;28;20454;-73
2021/08/20 02:28:16;;;;;;;3.80;2.97;;;;;;;17.87;89.00;155953.47;5069965;28;20481;-73
2021/08/20 02:30:52;;;;;;;2.30;1.97;;;;;;;17.85;88.47;155949.53;5047938;28;20489;-73
2021/08/20 02:33:28;;;;;;;3.30;2.60;;;;;;;17.82;89.43;155940.44;5041716;28;20438;-73
2021/08/20 02:36:06;;;;;;;3.10;2.50;;;;;;;17.84;89.48;155945.66;5055072;28;20474;-73
2021/08/20 02:38:43;;;;;;;3.17;2.50;;;;;;;17.83;89.09;155943.03;5070514;28;20855;-73
2021/08/20 02:41:20;;;;;;;2.80;2.10;;;;;;;17.82;88.87;155941.72;5067956;28;20441;-73
2021/08/20 02:43:57;;;;;;;2.83;2.30;;;;;;;17.83;89.21;155943.03;5068400;28;20447;-73
2021/08/20 02:46:33;;;;;;;3.07;2.03;;;;;;;17.81;88.36;155939.16;5069725;28;20449;-73
2021/08/20 02:49:11;;;;;;;2.80;2.50;;;;;;;17.80;88.95;155936.53;5054220;28;20912;-73
2021/08/20 02:51:46;;;;;;;2.77;2.30;;;;;;;17.80;87.88;155936.53;5067051;28;20458;-73
2021/08/20 02:54:22;;;;;;;2.60;2.20;;;;;;;17.80;88.33;155936.53;5049355;28;20457;-73
2021/08/20 02:56:58;;;;;;;2.90;2.60;;;;;;;17.78;87.31;155931.31;5055794;28;20867;-73
2021/08/20 02:59:36;;;;;;;2.37;2.17;;;;;;;17.80;88.77;155935.22;5054050;28;20459;-73
2021/08/20 03:02:14;;;;;;;3.63;2.23;;;;;;;17.73;88.85;155918.31;5046541;28;20462;-73
2021/08/20 03:04:50;;;;;;;2.97;2.67;;;;;;;17.76;87.87;155924.81;5055862;28;20948;-73
2021/08/20 03:07:26;;;;;;;3.40;2.10;;;;;;;17.76;86.78;155924.81;5070521;28;20917;-73
2021/08/20 03:10:02;;;;;;;2.60;2.40;;;;;;;17.75;87.09;155923.50;5069800;28;20446;-73
2021/08/20 03:12:39;;;;;;;2.20;1.83;;;;;;;17.75;86.39;155923.50;5071315;28;20438;-73
2021/08/20 03:15:17;;;;;;;4.17;2.60;;;;;;;17.73;86.13;155918.31;5070842;28;20944;-73
2021/08/20 03:17:52;;;;;;;2.47;2.00;;;;;;;17.71;88.80;155913.13;5055447;28;20481;-73
2021/08/20 03:20:28;;;;;;;2.30;2.10;;;;;;;17.71;87.89;155913.13;5068059;28;20446;-73
2021/08/20 03:23:04;;;;;;;2.10;1.90;;;;;;;17.71;88.45;155913.13;5052095;28;20530;-73
2021/08/20 03:25:39;;;;;;;3.37;2.27;;;;;;;17.70;88.69;155910.50;5053243;28;20466;-73
2021/08/20 03:28:18;;;;;;;3.23;2.10;;;;;;;17.68;88.68;155905.28;5052521;28;20450;-73
2021/08/20 03:31:02;;;;;;;3.10;2.17;;;;;;;17.67;90.13;155902.69;5073334;28;20450;-73
2021/08/20 03:33:42;;;;;;;2.77;2.27;;;;;;;17.66;89.35;155900.06;5059385;28;20458;-73
2021/08/20 03:36:26;;;;;;;2.60;2.20;;;;;;;17.66;89.02;155898.78;5055580;28;20466;-73
2021/08/20 03:39:06;;;;;;;2.87;2.30;;;;;;;17.64;87.66;155896.16;5056763;28;20454;-73
2021/08/20 03:41:44;;;;;;;2.63;2.20;;;;;;;17.64;87.71;155896.16;5057867;28;20461;-73
2021/08/20 03:44:24;;;;;;;3.30;2.40;;;;;;;17.63;86.78;155893.53;5073388;28;20796;-73
2021/08/20 03:47:05;;;;;;;2.60;2.10;;;;;;;17.64;87.10;155894.84;5039872;28;20427;-73
2021/08/20 03:49:41;;;;;;;2.70;2.30;;;;;;;17.66;87.73;155900.06;5057947;28;20454;-73
2021/08/20 03:52:17;;;;;;;2.00;1.80;;;;;;;17.63;86.89;155892.28;5058584;28;20446;-73
2021/08/20 03:54:53;;;;;;;2.17;1.97;;;;;;;17.62;87.21;155889.66;5055943;28;20438;-73
2021/08/20 03:57:31;;;;;;;3.30;2.20;;;;;;;17.60;87.28;155885.78;5069203;28;20478;-73
2021/08/20 04:00:08;;;;;;;4.90;2.23;;;;;;;17.61;88.46;155887.03;5056979;28;20449;-73
2021/08/20 04:02:50;;;;;;;4.67;2.13;;;;;;;17.61;88.43;155887.03;5071375;28;20446;-73
2021/08/20 04:05:26;;;;;;;2.73;2.13;;;;;;;17.61;88.15;155888.34;5058024;28;20454;-73
2021/08/20 04:08:14;;;;;;;3.50;2.30;;;;;;;17.62;89.01;155889.66;5057736;28;20866;-73
2021/08/20 04:11:10;;;;;;;2.70;2.10;;;;;;;17.59;89.56;155883.16;5073473;28;20434;-73
2021/08/20 04:14:09;;;;;;;3.97;2.60;;;;;;;17.60;89.00;155885.78;5065824;28;20446;-73
2021/08/20 04:16:45;;;;;;;3.03;2.53;;;;;;;17.59;88.38;155883.16;5070397;28;20503;-73
2021/08/20 04:19:21;;;;;;;2.67;2.27;;;;;;;17.61;88.40;155887.03;5072817;28;20455;-73
2021/08/20 04:21:57;;;;;;;10.20;2.30;;;;;;;17.59;88.27;155881.84;5038120;28;20945;-73
2021/08/20 04:24:34;;;;;;;4.40;2.70;;;;;;;17.58;87.80;155879.22;5062877;28;20477;-73
2021/08/20 04:27:29;;;;;;;3.87;2.13;;;;;;;17.55;87.41;155872.72;5061790;28;20439;-73
2021/08/20 04:30:14;;;;;;;3.93;2.93;;;;;;;17.55;87.15;155872.72;5063358;28;20517;-73
2021/08/20 04:33:03;;;;;;;2.60;2.00;;;;;;;17.55;87.49;155872.72;5072808;28;20445;-73
2021/08/20 04:36:02;;;;;;;2.80;2.50;;;;;;;17.54;87.67;155870.16;5072316;28;20450;-73
2021/08/20 04:38:48;;;;;;;3.33;2.40;;;;;;;17.53;86.98;155867.53;5056647;28;20843;-73
2021/08/20 04:41:52;;;;;;;4.73;2.90;;;;;;;17.56;87.04;155875.34;5038359;28;20804;-75
2021/08/20 04:44:46;;;;;;;3.30;2.70;;;;;;;17.58;87.26;155879.22;5055326;28;20438;-73
2021/08/20 04:47:49;;;;;;;3.10;2.40;;;;;;;17.57;87.49;155876.66;5047021;28;20457;-73
2021/08/20 04:50:51;;;;;;;3.20;2.90;;;;;;;17.58;88.14;155879.22;5052592;28;20454;-73
2021/08/20 04:54:05;;;;;;;3.27;2.80;;;;;;;17.59;87.60;155881.84;5033550;28;20444;-73
2021/08/20 04:56:59;;;;;;;2.60;2.40;;;;;;;17.59;87.24;155881.84;5062703;28;20459;-73
2021/08/20 04:59:35;;;;;;;3.00;2.60;;;;;;;17.58;87.49;155879.22;5032498;28;20467;-73
2021/08/20 05:02:11;;;;;;;3.40;2.17;;;;;;;17.59;88.00;155881.84;5037605;28;20442;-73
2021/08/20 05:04:46;;;;;;;3.97;2.50;;;;;;;17.58;88.37;155879.22;5055158;28;20454;-73
2021/08/20 05:07:22;;;;;;;4.10;2.80;;;;;;;17.57;89.97;155876.66;5070316;28;21005;-73
2021/08/20 05:09:58;;;;;;;3.23;2.40;;;;;;;17.58;88.25;155879.22;5062777;28;20524;-73
2021/08/20 05:12:34;;;;;;;3.47;2.60;;;;;;;17.53;88.77;155866.22;5072517;28;20826;-73
2021/08/20 05:15:10;;;;;;;2.83;2.60;;;;;;;17.51;88.05;155862.28;5072293;28;20442;-73
2021/08/20 05:17:45;;;;;;;3.10;2.30;;;;;;;17.51;89.67;155860.97;5051012;28;20470;-73
2021/08/20 05:20:21;;;;;;;3.10;2.33;;;;;;;17.54;88.60;155868.84;5072548;28;20434;-73
2021/08/20 05:22:57;;;;;;;3.30;2.33;;;;;;;17.56;88.35;155874.03;5069428;28;21989;-73
2021/08/20 05:25:36;;;;;;;2.53;2.23;;;;;;;17.60;90.43;155885.78;5065081;28;20439;-73
2021/08/20 05:28:12;;;;;;;3.70;2.80;;;;;;;17.59;88.72;155883.16;5066587;28;20458;-73
2021/08/20 05:30:48;;;;;;;3.10;2.37;;;;;;;17.61;88.75;155887.03;5068425;28;20422;-73
2021/08/20 05:33:23;;;;;;;3.13;2.40;;;;;;;17.63;88.41;155892.28;5065812;28;20482;-73
2021/08/20 05:35:58;;;;;;;2.90;2.60;;;;;;;17.62;88.32;155889.66;5083543;28;20446;-74
2021/08/20 05:38:34;;;;;;;4.33;2.43;;;;;;;17.65;89.88;155897.47;5069213;28;20478;-74
2021/08/20 05:41:11;;;;;;;2.57;2.37;;;;;;;17.67;89.71;155902.69;5065356;28;20862;-74
2021/08/20 05:43:47;;;;;;;3.37;2.50;;;;;;;17.66;88.12;155900.06;5062499;28;20937;-74
2021/08/20 05:46:23;;;;;;;2.57;2.20;;;;;;;17.70;88.58;155909.19;5067847;28;20438;-74
2021/08/20 05:48:58;;;;;;;3.67;3.07;;;;;;;17.72;89.45;155914.38;5055322;28;20446;-74
2021/08/20 05:51:34;;;;;;;3.50;2.43;;;;;;;17.74;88.48;155920.88;5071989;28;20517;-74
2021/08/20 05:54:09;;;;;;;2.70;2.50;;;;;;;17.80;89.51;155936.53;5072624;28;20443;-73
2021/08/20 05:56:46;;;;;;;3.67;2.53;;;;;;;17.81;88.41;155937.84;5071202;28;20482;-73
2021/08/20 05:59:21;;;;;;;3.80;2.67;;;;;;;17.86;88.88;155950.84;5069480;28;20449;-74
2021/08/20 06:01:57;;;;;;;5.13;2.37;;;;;;;17.87;87.42;155954.72;5069120;28;20462;-74
2021/08/20 06:04:32;;;;;;;3.50;2.70;;;;;;;17.94;88.18;155973.00;5050528;28;20450;-74
2021/08/20 06:07:11;;;;;;;3.50;3.17;;;;;;;18.00;87.67;155988.59;5048805;28;20434;-74
2021/08/20 06:09:47;;;;;;;3.30;2.40;;;;;;;18.02;87.59;155993.81;5044608;28;20804;-74
2021/08/20 06:12:24;;;;;;;3.07;2.77;;;;;;;18.08;87.83;156009.41;5059386;28;20433;-74
2021/08/20 06:15:00;;;;;;;3.23;2.63;;;;;;;18.14;88.91;156025.06;5055164;28;20544;-74
2021/08/20 06:17:35;;;;;;;5.07;2.93;;;;;;;18.18;88.90;156034.19;5063882;28;20945;-74
2021/08/20 06:20:12;;;;;;;2.77;2.50;;;;;;;18.25;89.68;156053.72;5072792;28;20797;-74
2021/08/20 06:22:47;;;;;;;2.93;2.30;;;;;;;18.31;90.18;156066.75;5071375;28;20834;-74
2021/08/20 06:25:23;;;;;;;2.77;2.57;;;;;;;18.34;90.67;156074.56;5093361;28;20437;-74
2021/08/20 06:28:00;;;;;;;4.60;2.90;;;;;;;18.37;88.33;156082.38;5074212;28;20444;-74
2021/08/20 06:30:36;;;;;;;5.00;2.80;;;;;;;18.42;88.62;156096.72;5059290;28;20449;-73
2021/08/20 06:33:11;;;;;;;3.07;2.73;;;;;;;18.51;87.92;156120.19;5065655;28;20444;-73
2021/08/20 06:35:47;;;;;;;14.53;4.00;;;;;;;18.58;86.97;156137.13;5073701;28;20452;-73
2021/08/20 06:38:22;;;;;;;4.63;3.30;;;;;;;18.63;86.30;156151.47;5070725;28;20555;-74
2021/08/20 06:40:58;;;;;;;3.87;3.27;;;;;;;18.63;86.66;156150.16;5088301;28;20462;-74
2021/08/20 06:43:35;;;;;;;4.57;3.97;;;;;;;18.74;86.81;156178.84;5087682;28;20524;-74
2021/08/20 06:46:10;;;;;;;4.43;3.50;;;;;;;18.80;86.10;156194.44;5072414;28;20449;-74
2021/08/20 06:48:46;;;;;;;3.93;3.40;;;;;;;18.90;85.60;156219.22;5066461;28;20575;-74
2021/08/20 06:51:22;;;;;;;4.37;3.97;;;;;;;18.95;86.81;156232.25;5088277;28;20441;-74
2021/08/20 06:53:57;;;;;;;4.30;3.80;;;;;;;18.98;85.53;156241.38;5070772;28;20469;-74
2021/08/20 06:56:33;;;;;;;4.83;3.80;;;;;;;19.12;85.07;156277.84;5091601;28;20460;-74
2021/08/20 06:59:14;;;;;;;4.20;3.80;;;;;;;19.22;83.29;156302.63;5086916;28;20464;-74
2021/08/20 07:01:49;;;;;;;4.73;3.80;;;;;;;19.39;84.44;156348.28;5090959;28;20446;-74
2021/08/20 07:04:25;;;;;;;5.07;4.57;;;;;;;19.69;83.99;156423.88;5059388;28;20519;-74
2021/08/20 07:07:00;;;;;;;5.07;4.50;;;;;;;20.03;82.47;156512.53;5092698;28;20425;-74
2021/08/20 07:09:36;;;;;;;4.93;4.40;;;;;;;20.53;81.16;156641.72;5090430;28;20453;-74
2021/08/20 07:12:11;;;;;;;4.90;4.40;;;;;;;20.92;79.83;156743.47;5073677;28;20838;-74
2021/08/20 07:14:48;;;;;;;4.17;3.77;;;;;;;21.18;75.92;156810.09;5074311;28;20950;-74
2021/08/20 07:17:24;;;;;;;5.00;4.50;;;;;;;21.43;74.97;156874.03;5075775;28;20419;-74
2021/08/20 07:19:59;;;;;;;8.60;4.63;;;;;;;21.61;73.62;156922.31;5062437;28;20452;-74
2021/08/20 07:22:35;;;;;;;5.63;5.03;;;;;;;21.51;73.19;156896.22;5061843;28;20450;-74
2021/08/20 07:25:11;;;;;;;5.50;4.90;;;;;;;21.45;72.72;156879.22;5065948;28;20479;-74
2021/08/20 07:27:46;;;;;;;5.60;4.80;;;;;;;21.55;74.65;156906.66;5077549;28;20455;-74
2021/08/20 07:30:23;;;;;;;4.90;4.50;;;;;;;22.05;71.93;157034.69;5085764;28;20452;-74
2021/08/20 07:32:59;;;;;;;6.07;5.47;;;;;;;22.01;71.02;157025.53;5082999;28;20449;-74
2021/08/20 07:35:34;;;;;;;5.67;5.17;;;;;;;21.91;71.14;156998.09;5079523;28;20445;-74
2021/08/20 07:38:10;;;;;;;5.80;5.20;;;;;;;22.46;71.06;157141.75;5076500;28;20470;-74
2021/08/20 07:40:45;;;;;;;7.20;5.57;;;;;;;22.66;69.72;157192.78;5073548;28;20460;-74
2021/08/20 07:43:21;;;;;;;6.20;5.60;;;;;;;22.41;69.54;157128.69;5089300;28;20458;-74
2021/08/20 07:45:59;;;;;;;5.63;5.03;;;;;;;22.50;71.88;157152.22;5093253;28;20525;-74
2021/08/20 07:48:35;;;;;;;6.07;5.47;;;;;;;22.88;69.83;157250.22;5077297;28;20532;-75
2021/08/20 07:51:10;;;;;;;7.17;6.07;;;;;;;23.19;66.90;157329.97;5076487;28;20800;-75
2021/08/20 07:53:46;;;;;;;8.03;5.70;;;;;;;22.98;68.09;157277.66;5077248;28;20448;-75
2021/08/20 07:56:21;;;;;;;6.27;5.77;;;;;;;22.76;66.82;157220.22;5077797;28;20440;-75
2021/08/20 07:58:57;;;;;;;6.00;5.50;;;;;;;22.90;67.91;157255.50;5059243;28;20902;-75
2021/08/20 08:01:34;;;;;;;6.90;5.60;;;;;;;22.78;66.66;157225.41;5077563;28;20806;-75
2021/08/20 08:04:09;;;;;;;6.33;5.73;;;;;;;22.31;69.57;157102.59;5077231;28;20544;-75
2021/08/20 08:06:45;;;;;;;6.30;5.63;;;;;;;22.47;68.73;157144.38;5077428;28;20796;-75
2021/08/20 08:09:20;;;;;;;6.80;5.93;;;;;;;22.42;68.48;157131.31;5095317;28;20429;-75
2021/08/20 08:11:56;;;;;;;6.20;5.60;;;;;;;22.29;69.49;157097.38;5094244;28;20418;-74
2021/08/20 08:14:32;;;;;;;6.00;5.40;;;;;;;22.22;69.84;157079.06;5077145;28;20441;-74
2021/08/20 08:17:08;;;;;;;7.80;6.87;;;;;;;22.04;68.84;157032.03;5076889;28;20437;-74
2021/08/20 08:19:44;;;;;;;5.80;5.20;;;;;;;22.18;69.24;157068.63;5094094;28;20481;-74
2021/08/20 08:22:20;;;;;;;7.13;6.43;;;;;;;21.87;69.71;156988.94;5076861;28;20515;-74
2021/08/20 08:24:55;;;;;;;7.70;6.97;;;;;;;21.93;69.11;157003.31;5076883;28;20472;-74
2021/08/20 08:27:31;;;;;;;6.23;5.70;;;;;;;22.25;69.69;157086.91;5095235;28;20425;-75
2021/08/20 08:30:07;;;;;;;6.60;6.00;;;;;;;22.26;69.25;157089.53;5076811;28;20531;-75
2021/08/20 08:32:44;;;;;;;4.93;4.50;;;;;;;22.47;68.31;157143.06;5078008;28;20437;-75
2021/08/20 08:35:20;;;;;;;5.10;4.60;;;;;;;22.67;65.27;157195.34;5076714;28;20461;-75
2021/08/20 08:38:02;;;;;;;4.93;4.40;;;;;;;22.68;65.09;157197.97;5095072;28;20445;-75
2021/08/20 08:40:39;;;;;;;6.10;5.50;;;;;;;22.73;66.35;157212.34;5076451;28;20449;-75
2021/08/20 08:43:15;;;;;;;5.07;4.60;;;;;;;22.73;66.02;157212.34;5076789;28;20437;-75
2021/08/20 08:45:50;;;;;;;5.60;5.10;;;;;;;22.70;67.36;157204.50;5076729;28;20531;-75
2021/08/20 08:48:28;;;;;;;5.27;4.73;;;;;;;22.73;68.59;157212.34;5094756;28;20463;-74
2021/08/20 08:51:05;;;;;;;5.63;5.07;;;;;;;22.70;68.73;157203.19;5076163;28;20456;-75
2021/08/20 08:53:40;;;;;;;5.67;4.97;;;;;;;22.71;68.97;157207.16;5094554;28;20418;-74
2021/08/20 08:56:19;;;;;;;6.40;5.80;;;;;;;22.52;72.00;157157.44;5076536;28;20459;-74
2021/08/20 08:58:55;;;;;;;5.13;4.73;;;;;;;22.55;68.61;157163.97;5076082;28;20461;-74
2021/08/20 09:01:32;;;;;;;5.43;4.93;;;;;;;22.42;68.78;157131.31;5094738;28;20438;-75
2021/08/20 09:04:16;;;;;;;5.80;5.30;;;;;;;22.27;68.87;157093.44;5076202;28;20437;-74
2021/08/20 09:06:53;;;;;;;5.20;4.77;;;;;;;22.32;69.53;157106.47;5093503;28;20468;-75
2021/08/20 09:09:30;;;;;;;5.33;4.83;;;;;;;22.62;66.71;157182.25;5075694;28;20429;-75
2021/08/20 09:12:09;;;;;;;4.37;4.00;;;;;;;22.53;64.49;157160.03;5075758;28;20862;-74
2021/08/20 09:14:44;;;;;;;4.77;3.53;;;;;;;22.94;64.54;157267.25;5094103;28;20445;-74
2021/08/20 09:17:32;;;;;;;4.70;4.20;;;;;;;23.69;61.86;157460.72;5076043;28;20807;-75
2021/08/20 09:20:17;;;;;;;6.33;4.00;;;;;;;23.79;59.13;157486.88;5077110;28;20469;-74
2021/08/20 09:22:54;;;;;;;3.50;3.20;;;;;;;23.74;61.55;157473.78;5075526;28;20955;-75
2021/08/20 09:25:35;;;;;;;6.33;5.73;;;;;;;23.25;66.83;157345.63;5075518;28;20539;-75
2021/08/20 09:28:14;;;;;;;7.73;6.20;;;;;;;22.90;66.56;157255.50;5093953;28;20876;-75
2021/08/20 09:31:07;;;;;;;8.27;7.47;;;;;;;22.69;67.85;157200.63;5094138;28;20815;-75
2021/08/20 09:33:50;;;;;;;7.90;7.30;;;;;;;22.76;68.23;157220.22;5093717;28;20422;-75
2021/08/20 09:36:27;;;;;;;7.40;6.80;;;;;;;22.63;71.51;157186.25;5094247;28;20461;-75
2021/08/20 09:39:03;;;;;;;8.10;7.40;;;;;;;22.17;69.28;157066.00;5075440;28;20456;-75
2021/08/20 09:41:43;;;;;;;8.43;7.70;;;;;;;22.08;73.45;157042.53;5093781;28;20445;-75
2021/08/20 09:44:24;;;;;;;8.70;7.90;;;;;;;22.21;70.44;157076.47;5075336;28;20461;-75
2021/08/20 09:47:05;;;;;;;8.90;8.10;;;;;;;21.94;71.93;157007.25;5075585;28;20430;-75
2021/08/20 09:49:56;;;;;;;9.17;8.37;;;;;;;21.93;69.91;157003.31;5075199;28;20472;-74
2021/08/20 09:52:34;;;;;;;7.40;6.80;;;;;;;21.79;74.32;156968.00;5075184;28;20441;-74
2021/08/20 09:55:09;;;;;;;9.27;8.50;;;;;;;21.85;69.15;156985.00;5075263;28;20449;-75
2021/08/20 09:57:45;;;;;;;9.23;8.40;;;;;;;21.42;69.75;156872.72;5093239;28;20445;-74
2021/08/20 10:00:21;;;;;;;8.67;7.63;;;;;;;21.42;70.36;156872.72;5071519;28;20490;-74
2021/08/20 10:02:56;;;;;;;7.20;6.50;;;;;;;21.27;69.07;156833.56;5055753;28;20478;-74
2021/08/20 10:05:32;;;;;;;9.20;8.40;;;;;;;21.18;70.11;156810.09;5075246;28;20448;-75
2021/08/20 10:08:13;;;;;;;6.93;6.33;;;;;;;21.24;69.15;156827.03;5093240;28;20414;-74
2021/08/20 10:10:49;;;;;;;9.20;7.07;;;;;;;21.57;71.52;156911.91;5074836;28;20544;-74
2021/08/20 10:13:26;;;;;;;7.33;6.73;;;;;;;21.83;68.45;156979.78;5074958;28;20567;-74
2021/08/20 10:16:02;;;;;;;8.53;7.73;;;;;;;21.96;68.43;157011.16;5093262;28;20441;-74
2021/08/20 10:18:38;;;;;;;7.37;6.67;;;;;;;22.35;66.14;157114.31;5093115;28;20498;-73
2021/08/20 10:21:14;;;;;;;6.87;6.27;;;;;;;22.46;67.57;157141.75;5074916;28;20954;-74
2021/08/20 10:23:51;;;;;;;7.83;7.13;;;;;;;22.25;67.49;157086.91;5074642;28;20469;-74
2021/08/20 10:26:27;;;;;;;8.30;7.50;;;;;;;21.87;68.37;156987.69;5075320;28;20480;-74
2021/08/20 10:29:02;;;;;;;8.00;7.30;;;;;;;21.82;67.46;156977.16;5076119;28;20429;-74
2021/08/20 10:31:40;;;;;;;6.90;6.30;;;;;;;21.85;65.23;156985.00;5074938;28;20455;-74
2021/08/20 10:34:35;;;;;;;7.13;6.43;;;;;;;21.99;66.70;157019.00;5085963;28;20450;-74
2021/08/20 10:37:12;;;;;;;6.30;5.77;;;;;;;22.19;66.74;157071.22;5071511;28;20434;-74
2021/08/20 10:39:50;;;;;;;7.43;6.73;;;;;;;22.29;68.01;157097.38;5071310;28;20509;-74
2021/08/20 10:42:36;;;;;;;7.17;6.57;;;;;;;22.40;67.75;157126.06;5072665;28;20963;-74
2021/08/20 10:45:13;;;;;;;7.27;6.57;;;;;;;22.26;67.42;157089.53;5072750;28;20809;-75
2021/08/20 10:48:13;;;;;;;7.17;6.47;;;;;;;22.01;68.56;157024.22;5072633;28;20813;-74
2021/08/20 10:50:49;;;;;;;6.40;5.80;;;;;;;22.06;68.61;157037.25;5090272;28;20771;-74
2021/08/20 10:53:24;;;;;;;7.43;6.73;;;;;;;22.16;69.74;157063.41;5092748;28;20445;-74
2021/08/20 10:56:20;;;;;;;6.97;6.23;;;;;;;21.91;71.08;156998.09;5074762;28;20481;-75
2021/08/20 10:58:56;;;;;;;7.23;6.37;;;;;;;22.11;67.55;157051.63;5074417;28;20469;-74
2021/08/20 11:01:32;;;;;;;6.43;5.70;;;;;;;21.96;65.84;157011.16;5059115;28;20551;-74
2021/08/20 11:04:07;;;;;;;6.17;5.53;;;;;;;21.79;66.74;156968.00;5074117;28;20437;-74
2021/08/20 11:06:50;;;;;;;8.00;5.63;;;;;;;21.96;66.40;157011.16;5092413;28;20917;-74
2021/08/20 11:09:27;;;;;;;6.20;5.60;;;;;;;21.94;63.32;157007.25;5074458;28;20429;-74
2021/08/20 11:12:04;;;;;;;5.67;4.80;;;;;;;21.87;62.09;156987.69;5074206;28;20870;-74
2021/08/20 11:14:40;;;;;;;5.87;5.37;;;;;;;22.00;62.72;157021.63;5092630;28;20433;-74
2021/08/20 11:17:47;;;;;;;5.30;4.80;;;;;;;22.13;67.21;157056.88;5074365;28;20424;-74
2021/08/20 11:20:24;;;;;;;5.77;4.90;;;;;;;22.20;62.17;157075.16;5073919;28;20912;-74
2021/08/20 11:23:17;;;;;;;5.10;4.60;;;;;;;22.33;61.35;157109.13;5073815;28;20524;-74
2021/08/20 11:25:56;;;;;;;5.13;4.73;;;;;;;22.47;67.46;157144.38;5074556;28;20919;-74
2021/08/20 11:28:34;;;;;;;6.00;5.50;;;;;;;22.18;61.15;157068.63;5092496;28;20417;-74
2021/08/20 11:31:10;;;;;;;5.47;4.93;;;;;;;22.14;62.12;157059.47;5092031;28;20425;-75
2021/08/20 11:33:46;;;;;;;4.90;4.40;;;;;;;22.30;62.14;157099.94;5090566;28;20422;-74
2021/08/20 11:36:23;;;;;;;5.50;5.07;;;;;;;22.55;63.33;157163.97;5072409;28;20442;-74
2021/08/20 11:39:01;;;;;;;6.33;4.90;;;;;;;22.72;61.04;157208.41;5072006;28;20922;-74
2021/08/20 11:41:40;;;;;;;5.57;5.07;;;;;;;22.91;59.66;157258.06;5069635;28;20476;-74
2021/08/20 11:44:17;;;;;;;6.20;5.60;;;;;;;22.93;62.73;157263.28;5092175;28;20409;-74
2021/08/20 11:46:53;;;;;;;5.90;5.40;;;;;;;22.94;61.36;157265.91;5075047;28;20543;-74
2021/08/20 11:49:30;;;;;;;6.50;5.90;;;;;;;22.94;61.87;157267.25;5096106;28;20417;-74
2021/08/20 11:52:07;;;;;;;6.33;5.83;;;;;;;22.63;61.04;157184.94;5077401;28;20535;-74
2021/08/20 11:54:42;;;;;;;5.70;5.30;;;;;;;22.49;61.63;157149.59;5095976;28;20529;-75
2021/08/20 11:57:18;;;;;;;6.00;5.47;;;;;;;22.56;65.65;157167.88;5095657;28;20465;-75
2021/08/20 11:59:55;;;;;;;8.10;5.80;;;;;;;22.63;64.88;157184.94;5077300;28;20970;-74
2021/08/20 12:02:30;;;;;;;6.53;5.93;;;;;;;22.65;63.77;157191.47;5077614;28;20440;-74
2021/08/20 12:05:16;;;;;;;5.97;5.47;;;;;;;22.72;62.30;157208.41;5077307;28;20477;-75
2021/08/20 12:07:51;;;;;;;6.23;5.73;;;;;;;22.62;61.72;157183.56;5095574;28;20517;-74
2021/08/20 12:10:26;;;;;;;6.90;5.73;;;;;;;22.62;60.28;157183.56;5077173;28;20441;-75
2021/08/20 12:13:03;;;;;;;6.20;5.70;;;;;;;22.49;58.96;157149.59;5077048;28;20437;-75
2021/08/20 12:15:40;;;;;;;7.10;4.63;;;;;;;22.61;59.29;157180.94;5077103;28;20456;-74